createdAt,value
2018-03-15T00:01:16.448Z,10.50
2018-03-15T00:03:43.918Z,10.50
2018-03-15T00:06:11.401Z,10.50
2018-03-15T00:08:39.639Z,10.50
2018-03-15T00:11:07.113Z,10.40
2018-03-15T00:13:34.588Z,10.40
2018-03-15T00:16:02.069Z,10.40
2018-03-15T00:18:29.540Z,10.40
2018-03-15T00:20:57.014Z,10.40
2018-03-15T00:23:24.487Z,10.40
2018-03-15T00:25:51.967Z,10.30
2018-03-15T00:28:19.463Z,10.30
2018-03-15T00:30:47.688Z,10.30
2018-03-15T00:33:15.172Z,10.30
2018-03-15T00:35:42.635Z,10.30
2018-03-15T00:38:10.130Z,10.30
2018-03-15T00:40:37.596Z,10.20
2018-03-15T00:43:05.069Z,10.30
2018-03-15T00:45:32.592Z,10.30
2018-03-15T00:48:00.075Z,10.20
2018-03-15T00:50:27.548Z,10.20
2018-03-15T00:52:55.058Z,10.20
2018-03-15T00:55:22.520Z,10.20
2018-03-15T00:57:50.013Z,10.20
2018-03-15T01:00:17.478Z,10.20
2018-03-15T01:02:44.944Z,10.10
2018-03-15T01:05:12.460Z,10.10
2018-03-15T01:07:39.924Z,10.10
2018-03-15T01:10:07.417Z,10.00
2018-03-15T01:12:34.877Z,10.00
2018-03-15T01:15:02.379Z,10.10
2018-03-15T01:17:29.849Z,10.00
2018-03-15T01:19:57.340Z,10.00
2018-03-15T01:22:24.797Z,10.00
2018-03-15T01:24:52.284Z,10.00
2018-03-15T01:27:19.762Z,10.00
2018-03-15T01:29:47.243Z,10.00
2018-03-15T01:32:15.488Z,9.90
2018-03-15T01:34:42.969Z,9.90
2018-03-15T01:37:10.490Z,9.90
2018-03-15T01:39:37.985Z,9.90
2018-03-15T01:42:05.457Z,9.90
2018-03-15T01:44:32.933Z,9.90
2018-03-15T01:47:00.381Z,9.90
2018-03-15T01:49:27.885Z,9.90
2018-03-15T01:51:55.406Z,9.80
2018-03-15T01:54:23.633Z,9.80
2018-03-15T01:56:51.105Z,9.70
2018-03-15T01:59:18.562Z,9.70
2018-03-15T02:01:46.073Z,9.70
2018-03-15T02:04:13.544Z,9.70
2018-03-15T02:06:41.088Z,9.70
2018-03-15T02:09:08.556Z,9.70
2018-03-15T02:11:36.046Z,9.70
2018-03-15T02:14:04.277Z,9.60
2018-03-15T02:16:32.521Z,9.60
2018-03-15T02:19:00.012Z,9.60
2018-03-15T02:21:27.508Z,9.60
2018-03-15T02:23:54.998Z,9.60
2018-03-15T02:26:22.467Z,9.60
2018-03-15T02:28:50.764Z,9.50
2018-03-15T02:31:18.333Z,9.50
2018-03-15T02:33:45.809Z,9.50
2018-03-15T02:36:13.265Z,9.50
2018-03-15T02:38:40.751Z,9.40
2018-03-15T02:41:08.219Z,9.40
2018-03-15T02:43:35.717Z,9.40
2018-03-15T02:46:03.173Z,9.40
2018-03-15T02:48:30.652Z,9.40
2018-03-15T02:50:58.109Z,9.30
2018-03-15T02:53:25.586Z,9.30
2018-03-15T02:55:53.042Z,9.30
2018-03-15T02:58:20.516Z,9.30
2018-03-15T03:00:47.988Z,9.30
2018-03-15T03:03:15.464Z,9.30
2018-03-15T03:05:42.938Z,9.30
2018-03-15T03:08:10.523Z,9.30
2018-03-15T03:10:38.010Z,9.20
2018-03-15T03:13:05.488Z,9.20
2018-03-15T03:15:32.957Z,9.20
2018-03-15T03:18:00.440Z,9.10
2018-03-15T03:20:27.905Z,9.10
2018-03-15T03:22:55.365Z,9.10
2018-03-15T03:25:22.848Z,9.10
2018-03-15T03:27:50.314Z,9.10
2018-03-15T03:30:17.830Z,9.00
2018-03-15T03:32:45.401Z,9.10
2018-03-15T03:35:12.891Z,9.00
2018-03-15T03:37:40.353Z,9.00
2018-03-15T03:40:07.840Z,9.00
2018-03-15T03:42:35.307Z,9.00
2018-03-15T03:45:02.795Z,9.00
2018-03-15T03:47:30.264Z,9.00
2018-03-15T03:49:57.737Z,9.00
2018-03-15T03:52:25.202Z,9.00
2018-03-15T03:54:52.686Z,8.90
2018-03-15T03:57:20.169Z,8.90
2018-03-15T03:59:47.660Z,8.90
2018-03-15T04:02:15.893Z,8.90
2018-03-15T04:04:43.380Z,8.90
2018-03-15T04:07:10.837Z,8.80
2018-03-15T04:09:38.319Z,8.80
2018-03-15T04:12:05.773Z,8.80
2018-03-15T04:14:33.283Z,8.80
2018-03-15T04:17:00.748Z,8.80
2018-03-15T04:19:28.204Z,8.80
2018-03-15T04:21:55.685Z,8.80
2018-03-15T04:24:23.149Z,8.70
2018-03-15T04:26:50.624Z,8.80
2018-03-15T04:29:18.085Z,8.70
2018-03-15T04:31:45.566Z,8.70
2018-03-15T04:34:13.030Z,8.70
2018-03-15T04:36:40.541Z,8.70
2018-03-15T04:39:08.795Z,8.70
2018-03-15T04:41:36.268Z,8.70
2018-03-15T04:44:03.734Z,8.70
2018-03-15T04:46:31.225Z,8.70
2018-03-15T04:48:59.469Z,8.60
2018-03-15T04:51:26.942Z,8.60
2018-03-15T04:53:54.412Z,8.60
2018-03-15T04:56:21.897Z,8.60
2018-03-15T04:58:49.368Z,8.50
2018-03-15T05:01:16.840Z,8.50
2018-03-15T05:03:44.297Z,8.50
2018-03-15T05:06:11.782Z,8.40
2018-03-15T05:08:39.314Z,8.40
2018-03-15T05:11:06.810Z,8.40
2018-03-15T05:13:34.288Z,8.40
2018-03-15T05:16:01.786Z,8.40
2018-03-15T05:18:29.268Z,8.40
2018-03-15T05:20:56.721Z,8.40
2018-03-15T05:23:24.296Z,8.40
2018-03-15T05:25:51.769Z,8.40
2018-03-15T05:28:19.255Z,8.40
2018-03-15T05:30:46.724Z,8.40
2018-03-15T05:33:14.201Z,8.40
2018-03-15T05:35:42.440Z,8.40
2018-03-15T05:38:09.921Z,8.30
2018-03-15T05:40:37.412Z,8.40
2018-03-15T05:43:04.889Z,8.40
2018-03-15T05:45:32.355Z,7.50
2018-03-15T05:47:59.876Z,8.40
2018-03-15T05:50:27.329Z,8.40
2018-03-15T05:52:55.581Z,8.40
2018-03-15T05:55:23.049Z,8.30
2018-03-15T05:57:50.545Z,8.40
2018-03-15T06:00:18.769Z,7.70
2018-03-15T06:02:46.433Z,7.90
2018-03-15T06:05:13.910Z,8.40
2018-03-15T06:07:41.438Z,8.40
2018-03-15T06:10:08.907Z,8.40
2018-03-15T06:12:36.369Z,8.50
2018-03-15T06:15:03.967Z,8.50
2018-03-15T06:17:31.445Z,8.60
2018-03-15T06:19:59.746Z,8.70
2018-03-15T06:22:27.212Z,8.70
2018-03-15T06:24:55.476Z,8.80
2018-03-15T06:27:23.033Z,8.80
2018-03-15T06:29:50.910Z,8.90
2018-03-15T06:32:18.379Z,9.00
2018-03-15T06:34:45.853Z,9.10
2018-03-15T06:37:13.367Z,9.20
2018-03-15T06:39:41.616Z,9.40
2018-03-15T06:42:10.266Z,9.40
2018-03-15T06:44:37.745Z,9.60
2018-03-15T06:47:05.235Z,9.70
2018-03-15T06:49:32.709Z,9.90
2018-03-15T06:52:00.173Z,10.10
2018-03-15T06:54:33.835Z,10.30
2018-03-15T06:57:02.113Z,10.50
2018-03-15T06:59:29.597Z,10.50
2018-03-15T07:01:57.077Z,10.60
2018-03-15T07:04:25.341Z,10.80
2018-03-15T07:06:54.402Z,11.00
2018-03-15T07:09:21.872Z,11.00
2018-03-15T07:11:49.360Z,11.20
2018-03-15T07:14:16.834Z,11.40
2018-03-15T07:16:44.331Z,11.60
2018-03-15T07:19:11.795Z,11.80
2018-03-15T07:21:39.275Z,12.10
2018-03-15T07:24:06.742Z,12.30
2018-03-15T07:26:34.249Z,12.60
2018-03-15T07:29:02.474Z,13.10
2018-03-15T07:31:29.999Z,13.10
2018-03-15T07:33:58.254Z,13.60
2018-03-15T07:36:25.713Z,13.60
2018-03-15T07:38:53.206Z,13.80
2018-03-15T07:41:20.676Z,14.10
2018-03-15T07:43:48.163Z,14.30
2018-03-15T07:46:15.635Z,14.60
2018-03-15T07:48:43.153Z,14.80
2018-03-15T07:51:10.618Z,15.00
2018-03-15T07:53:38.101Z,15.20
2018-03-15T07:56:05.565Z,15.30
2018-03-15T07:58:33.058Z,15.50
2018-03-15T08:01:00.517Z,15.50
2018-03-15T08:03:28.016Z,15.50
2018-03-15T08:05:55.478Z,15.50
2018-03-15T08:08:23.053Z,15.50
2018-03-15T08:10:50.527Z,15.50
2018-03-15T08:13:18.793Z,15.50
2018-03-15T08:15:46.261Z,15.50
2018-03-15T08:18:13.721Z,15.50
2018-03-15T08:20:41.205Z,15.50
2018-03-15T08:23:08.668Z,15.50
2018-03-15T08:25:36.156Z,15.50
2018-03-15T08:28:03.625Z,15.50
2018-03-15T08:30:31.105Z,15.60
2018-03-15T08:32:58.568Z,15.70
2018-03-15T08:35:26.063Z,15.80
2018-03-15T08:37:54.304Z,16.20
2018-03-15T08:40:21.794Z,16.20
2018-03-15T08:42:49.249Z,16.30
2018-03-15T08:45:16.738Z,16.40
2018-03-15T08:47:44.212Z,16.50
2018-03-15T08:50:11.709Z,16.60
2018-03-15T08:52:39.173Z,16.60
2018-03-15T08:55:06.673Z,16.60
2018-03-15T08:57:34.956Z,16.60
2018-03-15T09:00:02.454Z,16.60
2018-03-15T09:02:29.946Z,16.70
2018-03-15T09:04:57.420Z,16.70
2018-03-15T09:07:24.962Z,16.70
2018-03-15T09:09:52.532Z,16.80
2018-03-15T09:12:20.014Z,16.80
2018-03-15T09:14:47.478Z,16.90
2018-03-15T09:17:14.999Z,17.00
2018-03-15T09:19:42.465Z,17.10
2018-03-15T09:22:10.086Z,17.20
2018-03-15T09:24:37.617Z,17.30
2018-03-15T09:27:05.145Z,17.40
2018-03-15T09:29:33.443Z,17.60
2018-03-15T09:32:00.955Z,17.60
2018-03-15T09:34:28.469Z,17.70
2018-03-15T09:36:55.940Z,17.80
2018-03-15T09:39:23.429Z,17.90
2018-03-15T09:41:50.906Z,17.90
2018-03-15T09:44:18.394Z,18.00
2018-03-15T09:46:45.963Z,18.00
2018-03-15T09:49:13.461Z,18.00
2018-03-15T09:51:41.704Z,18.10
2018-03-15T09:54:09.191Z,18.10
2018-03-15T09:56:36.665Z,18.20
2018-03-15T09:59:04.158Z,18.30
2018-03-15T10:01:32.405Z,18.60
2018-03-15T10:03:59.909Z,18.60
2018-03-15T10:06:27.409Z,18.80
2018-03-15T10:08:55.674Z,19.20
2018-03-15T10:11:23.201Z,19.20
2018-03-15T10:13:50.712Z,19.40
2018-03-15T10:16:18.197Z,19.60
2018-03-15T10:18:46.462Z,19.80
2018-03-15T10:21:13.953Z,19.80
2018-03-15T10:23:41.445Z,20.00
2018-03-15T10:26:09.690Z,20.30
2018-03-15T10:28:37.245Z,20.20
2018-03-15T10:31:04.805Z,20.50
2018-03-15T10:33:38.247Z,20.70
2018-03-15T10:36:05.769Z,20.90
2018-03-15T10:38:33.256Z,21.10
2018-03-15T10:41:00.749Z,21.20
2018-03-15T10:43:28.260Z,21.30
2018-03-15T10:45:56.512Z,21.30
2018-03-15T10:48:23.999Z,21.30
2018-03-15T10:50:51.523Z,21.30
2018-03-15T10:53:19.009Z,21.20
2018-03-15T10:55:46.527Z,21.10
2018-03-15T10:58:14.790Z,21.00
2018-03-15T11:00:47.859Z,21.00
2018-03-15T11:03:17.121Z,21.00
2018-03-15T11:05:48.313Z,20.90
2018-03-15T11:08:21.574Z,20.90
2018-03-15T11:10:49.064Z,20.90
2018-03-15T11:13:16.537Z,20.90
2018-03-15T11:15:44.006Z,20.90
2018-03-15T11:18:11.516Z,20.90
2018-03-15T11:20:39.095Z,20.90
2018-03-15T11:23:06.612Z,20.90
2018-03-15T11:25:34.897Z,20.90
2018-03-15T11:28:02.380Z,20.90
2018-03-15T11:33:05.982Z,20.90
2018-03-15T11:35:33.453Z,21.00
2018-03-15T11:38:00.936Z,21.00
2018-03-15T11:40:28.406Z,21.00
2018-03-15T11:42:55.924Z,21.00
2018-03-15T11:45:24.180Z,20.80
2018-03-15T11:47:52.290Z,20.90
2018-03-15T11:50:19.777Z,20.80
2018-03-15T11:52:48.021Z,20.60
2018-03-15T11:55:15.507Z,20.60
2018-03-15T11:57:42.973Z,20.60
2018-03-15T12:00:10.473Z,20.50
2018-03-15T12:02:38.780Z,20.40
2018-03-15T12:05:06.307Z,20.40
2018-03-15T12:07:33.799Z,20.40
2018-03-15T12:10:01.304Z,20.30
2018-03-15T12:12:28.794Z,20.30
2018-03-15T12:14:56.292Z,20.20
2018-03-15T12:17:23.756Z,20.10
2018-03-15T12:19:51.239Z,20.00
2018-03-15T12:22:18.779Z,20.00
2018-03-15T12:24:46.438Z,19.90
2018-03-15T12:27:13.924Z,19.90
2018-03-15T12:29:41.397Z,19.90
2018-03-15T12:32:08.922Z,19.80
2018-03-15T12:34:37.193Z,19.80
2018-03-15T12:37:04.736Z,19.80
2018-03-15T12:39:32.245Z,19.90
2018-03-15T12:41:59.726Z,19.80
2018-03-15T12:44:27.200Z,19.90
2018-03-15T12:46:55.495Z,19.90
2018-03-15T12:49:23.748Z,19.80
2018-03-15T12:51:51.218Z,19.80
2018-03-15T12:54:18.716Z,19.80
2018-03-15T12:56:46.298Z,19.80
2018-03-15T12:59:14.545Z,19.80
2018-03-15T13:01:42.781Z,19.80
2018-03-15T13:04:11.029Z,19.80
2018-03-15T13:06:39.248Z,19.80
2018-03-15T13:09:07.540Z,19.90
2018-03-15T13:11:34.991Z,19.90
2018-03-15T13:14:02.471Z,20.00
2018-03-15T13:16:29.949Z,20.00
2018-03-15T13:18:58.205Z,20.10
2018-03-15T13:21:25.668Z,20.10
2018-03-15T13:26:32.378Z,20.40
2018-03-15T13:28:59.853Z,20.40
2018-03-15T13:31:27.309Z,20.50
2018-03-15T13:33:54.802Z,20.60
2018-03-15T13:36:22.337Z,20.60
2018-03-15T13:38:49.789Z,20.60
2018-03-15T13:41:18.033Z,20.50
2018-03-15T13:43:45.547Z,20.60
2018-03-15T13:46:13.809Z,20.50
2018-03-15T13:48:41.269Z,20.40
2018-03-15T13:51:08.750Z,20.40
2018-03-15T13:53:36.268Z,20.30
2018-03-15T13:56:03.764Z,20.20
2018-03-15T13:58:31.225Z,20.10
2018-03-15T14:00:58.759Z,20.00
2018-03-15T14:03:27.011Z,19.90
2018-03-15T14:05:54.488Z,19.80
2018-03-15T14:08:21.981Z,19.80
2018-03-15T14:10:49.462Z,19.70
2018-03-15T14:13:17.685Z,19.50
2018-03-15T14:15:45.161Z,19.50
2018-03-15T14:18:12.628Z,19.40
2018-03-15T14:20:40.122Z,19.40
2018-03-15T14:23:07.605Z,19.30
2018-03-15T14:25:35.073Z,19.20
2018-03-15T14:28:02.561Z,19.10
2018-03-15T14:30:31.026Z,19.00
2018-03-15T14:32:58.605Z,18.90
2018-03-15T14:35:26.105Z,18.80
2018-03-15T14:37:53.581Z,18.70
2018-03-15T14:40:21.837Z,18.60
2018-03-15T14:42:49.379Z,18.60
2018-03-15T14:45:16.846Z,18.60
2018-03-15T14:47:44.322Z,18.50
2018-03-15T14:50:11.788Z,18.50
2018-03-15T14:52:39.261Z,18.50
2018-03-15T14:55:06.728Z,18.50
2018-03-15T14:57:34.208Z,18.40
2018-03-15T15:00:01.665Z,18.40
2018-03-15T15:02:29.265Z,18.40
2018-03-15T15:04:56.722Z,18.30
2018-03-15T15:07:24.221Z,18.30
2018-03-15T15:09:51.701Z,18.20
2018-03-15T15:12:19.158Z,18.20
2018-03-15T15:14:46.637Z,18.00
2018-03-15T15:17:14.107Z,18.10
2018-03-15T15:19:41.641Z,18.00
2018-03-15T15:22:09.255Z,17.90
2018-03-15T15:24:36.798Z,17.90
2018-03-15T15:27:04.265Z,17.80
2018-03-15T15:29:31.742Z,17.80
2018-03-15T15:31:59.245Z,17.70
2018-03-15T15:34:26.750Z,17.70
2018-03-15T15:36:54.978Z,17.70
2018-03-15T15:39:22.453Z,17.70
2018-03-15T15:41:49.912Z,17.60
2018-03-15T15:44:17.387Z,17.60
2018-03-15T15:46:44.865Z,17.60
2018-03-15T15:49:12.384Z,17.60
2018-03-15T15:51:39.841Z,17.60
2018-03-15T15:54:07.343Z,17.60
2018-03-15T15:56:34.814Z,17.50
2018-03-15T15:59:02.298Z,17.50
2018-03-15T16:01:29.784Z,17.50
2018-03-15T16:03:57.277Z,17.40
2018-03-15T16:06:24.733Z,17.40
2018-03-15T16:08:52.189Z,17.40
2018-03-15T16:11:19.697Z,17.40
2018-03-15T16:13:47.178Z,17.30
2018-03-15T16:16:14.671Z,17.30
2018-03-15T16:18:42.937Z,17.30
2018-03-15T16:21:10.412Z,17.20
2018-03-15T16:23:37.869Z,17.30
2018-03-15T16:26:05.342Z,17.20
2018-03-15T16:28:32.833Z,17.20
2018-03-15T16:31:00.332Z,17.20
2018-03-15T16:33:27.862Z,17.20
2018-03-15T16:35:55.362Z,17.20
2018-03-15T16:38:23.630Z,17.10
2018-03-15T16:40:51.093Z,17.10
2018-03-15T16:43:18.614Z,17.10
2018-03-15T16:45:46.033Z,17.10
2018-03-15T16:48:13.525Z,17.10
2018-03-15T16:50:41.745Z,17.10
2018-03-15T16:53:09.345Z,17.00
2018-03-15T16:55:37.613Z,17.00
2018-03-15T16:58:05.096Z,17.00
2018-03-15T17:00:32.593Z,17.00
2018-03-15T17:03:00.060Z,17.00
2018-03-15T17:05:27.590Z,17.00
2018-03-15T17:07:55.153Z,16.90
2018-03-15T17:10:22.637Z,16.90
2018-03-15T17:12:50.137Z,16.90
2018-03-15T17:15:17.663Z,17.00
2018-03-15T17:17:45.161Z,16.90
2018-03-15T17:20:12.648Z,16.90
2018-03-15T17:22:42.904Z,16.90
2018-03-15T17:25:10.380Z,16.90
2018-03-15T17:27:37.875Z,16.90
2018-03-15T17:30:05.619Z,16.80
2018-03-15T17:32:34.003Z,16.90
2018-03-15T17:35:01.486Z,16.90
2018-03-15T17:37:28.984Z,16.80
2018-03-15T17:39:57.339Z,16.80
2018-03-15T17:42:24.797Z,16.80
2018-03-15T17:44:52.455Z,16.80
2018-03-15T17:47:19.970Z,16.80
2018-03-15T17:49:47.513Z,16.80
2018-03-15T17:52:15.033Z,16.80
2018-03-15T17:54:42.507Z,16.70
2018-03-15T17:57:10.157Z,16.80
2018-03-15T17:59:37.857Z,16.70
2018-03-15T18:02:05.421Z,16.70
2018-03-15T18:04:33.253Z,16.70
2018-03-15T18:07:01.707Z,16.70
2018-03-15T18:09:29.989Z,16.70
2018-03-15T18:11:58.464Z,16.60
2018-03-15T18:14:25.998Z,16.60
2018-03-15T18:16:53.587Z,16.60
2018-03-15T18:19:21.105Z,16.60
2018-03-15T18:21:49.475Z,16.50
2018-03-15T18:24:18.018Z,16.50
2018-03-15T18:26:45.541Z,16.50
2018-03-15T18:29:13.045Z,16.40
2018-03-15T18:31:40.533Z,16.40
2018-03-15T18:34:07.992Z,16.30
2018-03-15T18:36:35.481Z,16.30
2018-03-15T18:39:02.999Z,16.20
2018-03-15T18:41:30.531Z,16.20
2018-03-15T18:43:58.193Z,16.10
2018-03-15T18:46:25.685Z,16.10
2018-03-15T18:48:53.188Z,16.00
2018-03-15T18:51:21.002Z,16.00
2018-03-15T18:53:48.532Z,15.90
2018-03-15T18:56:16.026Z,15.90
2018-03-15T18:58:44.276Z,15.80
2018-03-15T19:01:12.843Z,15.80
2018-03-15T19:03:40.150Z,15.70
2018-03-15T19:06:07.643Z,15.70
2018-03-15T19:08:35.098Z,15.70
2018-03-15T19:11:02.696Z,15.70
2018-03-15T19:13:30.241Z,15.60
2018-03-15T19:15:57.697Z,15.50
2018-03-15T19:18:25.188Z,15.50
2018-03-15T19:20:52.661Z,15.50
2018-03-15T19:23:20.180Z,15.40
2018-03-15T19:25:47.692Z,15.40
2018-03-15T19:28:16.075Z,15.40
2018-03-15T19:30:43.590Z,15.30
2018-03-15T19:33:11.933Z,15.30
2018-03-15T19:35:39.471Z,15.30
2018-03-15T19:38:07.791Z,15.30
2018-03-15T19:40:35.434Z,15.20
2018-03-15T19:43:03.077Z,15.20
2018-03-15T19:45:31.502Z,15.20
2018-03-15T19:47:59.147Z,15.10
2018-03-15T19:50:26.712Z,15.10
2018-03-15T19:52:54.193Z,15.10
2018-03-15T19:55:21.682Z,15.10
2018-03-15T19:57:50.096Z,15.10
2018-03-15T20:00:17.598Z,15.10
2018-03-15T20:02:45.101Z,15.10
2018-03-15T20:05:12.649Z,15.10
2018-03-15T20:07:40.163Z,15.10
2018-03-15T20:10:07.649Z,15.10
2018-03-15T20:12:35.115Z,15.10
2018-03-15T20:15:02.787Z,15.10
2018-03-15T20:17:30.254Z,15.10
2018-03-15T20:19:57.855Z,15.10
2018-03-15T20:22:31.073Z,15.10
2018-03-15T20:24:58.565Z,15.10
2018-03-15T20:27:31.707Z,15.10
2018-03-15T20:29:59.236Z,15.10
2018-03-15T20:35:31.752Z,15.00
2018-03-15T20:37:59.326Z,15.00
2018-03-15T20:40:33.833Z,15.00
2018-03-15T20:43:01.614Z,15.00
2018-03-15T20:45:34.938Z,15.00
2018-03-15T20:48:08.107Z,15.00
2018-03-15T20:50:35.703Z,15.00
2018-03-15T20:53:03.378Z,14.90
2018-03-15T20:55:32.672Z,14.90
2018-03-15T20:58:00.341Z,14.90
2018-03-15T21:00:29.041Z,14.90
2018-03-15T21:02:56.792Z,14.90
2018-03-15T21:05:24.516Z,14.90
2018-03-15T21:07:52.180Z,15.00
2018-03-15T21:10:19.975Z,15.00
2018-03-15T21:12:47.989Z,15.00
2018-03-15T21:15:16.148Z,15.00
2018-03-15T21:17:43.692Z,15.00
2018-03-15T21:20:11.197Z,15.00
2018-03-15T21:22:38.807Z,15.00
2018-03-15T21:25:06.269Z,15.00
2018-03-15T21:27:34.633Z,14.90
2018-03-15T21:30:02.085Z,14.90
2018-03-15T21:32:29.616Z,14.90
2018-03-15T21:34:57.185Z,14.90
2018-03-15T21:37:24.712Z,14.90
2018-03-15T21:39:52.467Z,14.90
2018-03-15T21:42:20.170Z,14.90
2018-03-15T21:44:49.909Z,14.90
2018-03-15T21:47:18.100Z,14.80
2018-03-15T21:49:46.776Z,14.80
2018-03-15T21:52:14.286Z,14.80
2018-03-15T21:54:41.837Z,14.70
2018-03-15T21:57:09.325Z,14.70
2018-03-15T21:59:37.597Z,14.60
2018-03-15T22:02:05.129Z,14.60
2018-03-15T22:04:32.621Z,14.60
2018-03-15T22:07:00.099Z,14.60
2018-03-15T22:09:27.625Z,14.60
2018-03-15T22:11:55.864Z,14.60
2018-03-15T22:14:23.387Z,14.60
2018-03-15T22:16:51.649Z,14.50
2018-03-15T22:19:19.537Z,14.50
2018-03-15T22:21:47.134Z,14.50
2018-03-15T22:24:15.424Z,14.50
2018-03-15T22:26:43.753Z,14.50
2018-03-15T22:29:11.245Z,14.40
2018-03-15T22:31:38.729Z,14.50
2018-03-15T22:34:06.197Z,14.50
2018-03-15T22:36:33.741Z,14.50
2018-03-15T22:39:01.197Z,14.50
2018-03-15T22:41:28.680Z,14.50
2018-03-15T22:43:56.161Z,14.40
2018-03-15T22:46:23.798Z,14.40
2018-03-15T22:48:51.262Z,14.40
2018-03-15T22:51:19.513Z,14.40
2018-03-15T22:53:47.141Z,14.40
2018-03-15T22:56:14.676Z,14.40
2018-03-15T22:58:43.921Z,14.30
2018-03-15T23:01:11.437Z,14.30
2018-03-15T23:03:38.929Z,14.30
2018-03-15T23:06:06.421Z,14.30
2018-03-15T23:08:34.677Z,14.30
2018-03-15T23:11:02.216Z,14.30
2018-03-15T23:13:29.708Z,14.20
2018-03-15T23:15:57.221Z,14.20
2018-03-15T23:18:25.672Z,14.20
2018-03-15T23:20:53.261Z,14.10
2018-03-15T23:23:20.765Z,14.20
2018-03-15T23:25:49.277Z,14.10
2018-03-15T23:28:16.833Z,14.10
2018-03-15T23:30:45.066Z,14.10
2018-03-15T23:33:12.544Z,14.10
2018-03-15T23:35:40.021Z,14.10
2018-03-15T23:38:07.506Z,14.10
2018-03-15T23:40:34.964Z,14.00
2018-03-15T23:43:02.689Z,14.00
2018-03-15T23:45:30.182Z,14.00
2018-03-15T23:47:57.712Z,14.00
2018-03-15T23:50:25.213Z,14.00
2018-03-15T23:52:52.711Z,14.00
2018-03-15T23:55:20.200Z,14.00
2018-03-15T23:57:47.663Z,13.90
